Anahola, HI

3:06 AM HST on August 03, 2015 (GMT -1000)
WAILUA HOMESTEADS | | Change Station
CLOSE
Current Station
Personal Weather Station
Location: Kapaa, HI
Elevation: 361 ft
Nearby Weather Stations
Active Advisory: High Surf Advisory

Elev 361 ft 22.07 °N, 159.36 °W | Updated 1 minute ago

Rain
Rain
75.4 °F
Feels Like 76 °F
N
1.0
Wind Variable Wind from NE
Gusts 9.0 mph

Today
High -- | Low -- °F
--% Chance of Precip.
Yesterday
High -- | Low -- °F
Precip. -- in
6:10 AM 7:16 PM
Waning Gibbous, 87% visible
Pressure 29.90 in
Visibility 8.0 miles
Clouds Scattered Clouds 2300 ft
Scattered Clouds 3200 ft
Mostly Cloudy 3900 ft
Heat Index 76 °F
Dew Point 71 °F
Humidity 85%
Rainfall 0.00 in
Snow Depth Not available.
UV 0.0 out of 12
Pollen Not available.
Air Quality Not available.
Flu Activity Not available.
METAR PHLI 031253Z 05010G20KT 8SM RA SCT023 SCT032 BKN039 24/21 A2991 RMK AO2 RAB01E11B48 SLP125 P0002 T02440211

More Conditions Fewer Conditions

Pressure 29.90 in
Visibility 8.0 miles
Clouds Scattered Clouds 2300 ft
Scattered Clouds 3200 ft
Mostly Cloudy 3900 ft
Heat Index 76 °F
Dew Point 71 °F
Humidity 85%
Rainfall 0.00 in
Snow Depth Not available.
UV 0.0 out of 12
Pollen Not available.
Air Quality Not available.
Flu Activity Not available.
METAR PHLI 031253Z 05010G20KT 8SM RA SCT023 SCT032 BKN039 24/21 A2991 RMK AO2 RAB01E11B48 SLP125 P0002 T02440211

More Conditions Fewer Conditions

10-Day Weather Forecast

×

Almanac

Astronomy

Aug. 03, 2015 Rise Set
Actual Time
Civil Twilight
Nautical Twilight
Astronomical Twilight
Moon
Length of Visible Light
Length of Day
Tomorrow will be .
, % of the Moon is Illuminated

Today's Extremes

State Highs State Lows

Community

WunderPhotos

Upload Photos

1,843,629 photos uploaded!

WunderBlogs® & News

Nearby

Air Quality

  Air Quality AQ Index Pollutant
Not available.

Snow Depth

Station Depth Elevation

Earthquake Activity

City Distance Mag. Time & Date
Minimum magnitude displayed is 2.5.

Coastal Water Temperatures

Place Temperature

Stations

Nearby Weather Stations

Station Location Temp. Windchill Dew Point Humidity Wind Precip. Elev Updated Type
                   
High Surf Advisory
Statement as of 3:01 PM HST on August 02, 2015

... High surf advisory remains in effect until 6 PM HST Tuesday...

A high surf advisory remains in effect until 6 PM HST Tuesday.

* Surf... along east facing shores... 8 to 12 feet tonight... and 10
to 14 feet Monday through Tuesday.

* Timing... surf will continue to build tonight and Monday... then peaking
Monday night.

* Impacts... moderate... expect strong breaking waves... shore
break... and strong longshore and rip currents making swimming
difficult and dangerous.

Precautionary/preparedness actions... beachgoers... swimmers... and
surfers should heed all advice given by ocean safety officials
and exercise caution. Boaters should expect recreational surfers
and body boarders utilizing Harbor channels to access surfing
areas.



Foster